createdAt,value
2017-10-15T00:00:36.567Z,101281
2017-10-15T00:01:36.587Z,101277
2017-10-15T00:02:36.643Z,101279
2017-10-15T00:03:36.870Z,101278
2017-10-15T00:04:36.686Z,101273
2017-10-15T00:05:36.787Z,101272
2017-10-15T00:06:36.872Z,101273
2017-10-15T00:07:36.928Z,101272
2017-10-15T00:08:36.897Z,101267
2017-10-15T00:09:37.273Z,101269
2017-10-15T00:10:37.014Z,101269
2017-10-15T00:11:37.106Z,101269
2017-10-15T00:12:37.151Z,101268
2017-10-15T00:13:37.122Z,101263
2017-10-15T00:14:37.195Z,101265
2017-10-15T00:15:37.550Z,101265
2017-10-15T00:16:37.429Z,101266
2017-10-15T00:17:37.520Z,101265
2017-10-15T00:18:37.463Z,101266
2017-10-15T00:19:37.569Z,101258
2017-10-15T00:20:37.556Z,101263
2017-10-15T00:21:37.900Z,101266
2017-10-15T00:22:37.753Z,101258
2017-10-15T00:23:37.806Z,101269
2017-10-15T00:24:37.813Z,101266
2017-10-15T00:25:37.865Z,101264
2017-10-15T00:26:37.869Z,101263
2017-10-15T00:27:38.140Z,101266
2017-10-15T00:28:37.885Z,101265
2017-10-15T00:29:37.989Z,101265
2017-10-15T00:30:37.971Z,101263
2017-10-15T00:31:38.117Z,101267
2017-10-15T00:32:38.113Z,101270
2017-10-15T00:33:38.145Z,101267
2017-10-15T00:34:38.246Z,101267
2017-10-15T00:35:38.294Z,101271
2017-10-15T00:36:38.282Z,101271
2017-10-15T00:37:38.428Z,101270
2017-10-15T00:38:38.443Z,101271
2017-10-15T00:39:38.453Z,101267
2017-10-15T00:40:38.450Z,101268
2017-10-15T00:41:38.466Z,101266
2017-10-15T00:42:38.539Z,101266
2017-10-15T00:43:38.506Z,101266
2017-10-15T00:44:38.522Z,101267
2017-10-15T00:45:38.605Z,101264
2017-10-15T00:46:38.637Z,101269
2017-10-15T00:47:38.745Z,101262
2017-10-15T00:48:38.769Z,101266
2017-10-15T00:49:38.893Z,101267
2017-10-15T00:50:38.897Z,101263
2017-10-15T00:51:38.935Z,101264
2017-10-15T00:52:38.998Z,101266
2017-10-15T00:53:38.958Z,101264
2017-10-15T00:54:39.097Z,101263
2017-10-15T00:55:39.063Z,101259
2017-10-15T00:56:39.219Z,101259
2017-10-15T00:57:39.194Z,101255
2017-10-15T00:58:39.196Z,101261
2017-10-15T00:59:39.329Z,101262
2017-10-15T01:00:39.778Z,101260
2017-10-15T01:01:39.386Z,101261
2017-10-15T01:02:39.392Z,101260
2017-10-15T01:03:39.475Z,101262
2017-10-15T01:04:39.473Z,101257
2017-10-15T01:05:39.637Z,101260
2017-10-15T01:06:39.652Z,101259
2017-10-15T01:07:39.691Z,101252
2017-10-15T01:08:39.692Z,101259
2017-10-15T01:09:39.716Z,101262
2017-10-15T01:10:39.936Z,101255
2017-10-15T01:11:40.122Z,101264
2017-10-15T01:12:40.141Z,101263
2017-10-15T01:13:40.216Z,101263
2017-10-15T01:14:40.348Z,101265
2017-10-15T01:15:40.221Z,101262
2017-10-15T01:16:40.360Z,101258
2017-10-15T01:17:40.187Z,101262
2017-10-15T01:18:40.271Z,101254
2017-10-15T01:19:40.360Z,101260
2017-10-15T01:20:40.387Z,101261
2017-10-15T01:21:40.299Z,101254
2017-10-15T01:22:40.316Z,101256
2017-10-15T01:23:40.378Z,101260
2017-10-15T01:24:40.405Z,101257
2017-10-15T01:25:40.407Z,101258
2017-10-15T01:26:40.510Z,101260
2017-10-15T01:27:40.603Z,101261
2017-10-15T01:28:40.718Z,101261
2017-10-15T01:29:40.730Z,101262
2017-10-15T01:30:40.797Z,101257
2017-10-15T01:31:40.816Z,101258
2017-10-15T01:32:40.958Z,101261
2017-10-15T01:33:41.039Z,101258
2017-10-15T01:34:41.110Z,101255
2017-10-15T01:35:41.065Z,101258
2017-10-15T01:36:41.100Z,101256
2017-10-15T01:37:41.114Z,101258
2017-10-15T01:38:41.174Z,101253
2017-10-15T01:39:41.257Z,101257
2017-10-15T01:40:41.271Z,101259
2017-10-15T01:41:41.415Z,101255
2017-10-15T01:42:41.275Z,101258
2017-10-15T01:43:41.515Z,101255
2017-10-15T01:44:41.329Z,101257
2017-10-15T01:45:41.394Z,101257
2017-10-15T01:46:41.464Z,101254
2017-10-15T01:47:41.631Z,101256
2017-10-15T01:48:41.667Z,101259
2017-10-15T01:49:41.653Z,101257
2017-10-15T01:50:41.662Z,101257
2017-10-15T01:51:41.744Z,101256
2017-10-15T01:52:41.746Z,101259
2017-10-15T01:53:41.905Z,101258
2017-10-15T01:54:41.941Z,101249
2017-10-15T01:55:41.867Z,101254
2017-10-15T01:56:41.948Z,101253
2017-10-15T01:57:42.031Z,101253
2017-10-15T01:58:42.149Z,101254
2017-10-15T01:59:42.118Z,101247
2017-10-15T02:00:42.249Z,101249
2017-10-15T02:01:42.267Z,101249
2017-10-15T02:02:42.238Z,101249
2017-10-15T02:03:42.359Z,101244
2017-10-15T02:04:42.372Z,101246
2017-10-15T02:05:42.382Z,101247
2017-10-15T02:06:42.526Z,101244
2017-10-15T02:07:42.524Z,101252
2017-10-15T02:08:42.624Z,101246
2017-10-15T02:09:42.696Z,101256
2017-10-15T02:10:42.728Z,101250
2017-10-15T02:11:42.721Z,101248
2017-10-15T02:12:42.873Z,101250
2017-10-15T02:13:42.904Z,101250
2017-10-15T02:14:42.912Z,101247
2017-10-15T02:15:42.934Z,101253
2017-10-15T02:16:43.082Z,101248
2017-10-15T02:17:43.104Z,101246
2017-10-15T02:18:43.156Z,101252
2017-10-15T02:19:43.130Z,101252
2017-10-15T02:20:43.239Z,101248
2017-10-15T02:21:43.243Z,101244
2017-10-15T02:22:43.314Z,101249
2017-10-15T02:23:43.399Z,101248
2017-10-15T02:24:43.463Z,101245
2017-10-15T02:25:43.601Z,101249
2017-10-15T02:26:43.544Z,101249
2017-10-15T02:27:43.646Z,101248
2017-10-15T02:28:43.736Z,101253
2017-10-15T02:29:43.751Z,101247
2017-10-15T02:30:43.788Z,101241
2017-10-15T02:31:43.788Z,101250
2017-10-15T02:32:43.918Z,101246
2017-10-15T02:33:43.901Z,101246
2017-10-15T02:34:43.938Z,101244
2017-10-15T02:35:44.008Z,101251
2017-10-15T02:36:44.091Z,101250
2017-10-15T02:37:44.044Z,101254
2017-10-15T02:38:44.103Z,101248
2017-10-15T02:39:44.188Z,101251
2017-10-15T02:40:44.284Z,101251
2017-10-15T02:41:44.276Z,101254
2017-10-15T02:42:44.417Z,101247
2017-10-15T02:43:44.433Z,101250
2017-10-15T02:44:44.387Z,101251
2017-10-15T02:45:44.467Z,101251
2017-10-15T02:46:44.597Z,101245
2017-10-15T02:47:44.663Z,101255
2017-10-15T02:48:44.714Z,101253
2017-10-15T02:49:44.663Z,101250
2017-10-15T02:50:44.773Z,101252
2017-10-15T02:51:44.785Z,101250
2017-10-15T02:52:44.774Z,101252
2017-10-15T02:53:44.922Z,101253
2017-10-15T02:54:44.933Z,101254
2017-10-15T02:55:44.972Z,101251
2017-10-15T02:56:45.045Z,101254
2017-10-15T02:57:45.047Z,101246
2017-10-15T02:58:45.197Z,101251
2017-10-15T02:59:45.208Z,101247
2017-10-15T03:00:45.230Z,101246
2017-10-15T03:01:45.283Z,101241
2017-10-15T03:02:45.446Z,101245
2017-10-15T03:03:45.452Z,101244
2017-10-15T03:04:45.457Z,101245
2017-10-15T03:05:45.575Z,101244
2017-10-15T03:06:45.629Z,101244
2017-10-15T03:07:45.604Z,101243
2017-10-15T03:08:45.734Z,101238
2017-10-15T03:09:45.777Z,101239
2017-10-15T03:10:45.791Z,101237
2017-10-15T03:11:45.742Z,101238
2017-10-15T03:12:45.754Z,101238
2017-10-15T03:13:45.842Z,101239
2017-10-15T03:14:45.923Z,101234
2017-10-15T03:15:46.011Z,101238
2017-10-15T03:16:46.011Z,101239
2017-10-15T03:17:46.076Z,101237
2017-10-15T03:18:46.189Z,101235
2017-10-15T03:19:46.173Z,101234
2017-10-15T03:20:46.245Z,101236
2017-10-15T03:21:46.383Z,101240
2017-10-15T03:22:46.335Z,101236
2017-10-15T03:23:46.425Z,101234
2017-10-15T03:24:46.375Z,101229
2017-10-15T03:25:46.464Z,101232
2017-10-15T03:26:46.526Z,101233
2017-10-15T03:27:46.581Z,101237
2017-10-15T03:28:46.597Z,101237
2017-10-15T03:29:46.718Z,101239
2017-10-15T03:30:46.736Z,101233
2017-10-15T03:31:46.836Z,101236
2017-10-15T03:32:46.862Z,101236
2017-10-15T03:33:46.936Z,101237
2017-10-15T03:34:46.978Z,101239
2017-10-15T03:35:47.084Z,101234
2017-10-15T03:36:47.031Z,101238
2017-10-15T03:37:47.089Z,101239
2017-10-15T03:38:47.246Z,101242
2017-10-15T03:39:47.335Z,101234
2017-10-15T03:40:47.375Z,101239
2017-10-15T03:41:47.382Z,101237
2017-10-15T03:42:47.519Z,101236
2017-10-15T03:43:47.543Z,101239
2017-10-15T03:44:47.647Z,101230
2017-10-15T03:45:47.628Z,101237
2017-10-15T03:46:47.618Z,101229
2017-10-15T03:47:47.710Z,101236
2017-10-15T03:48:47.841Z,101231
2017-10-15T03:49:47.892Z,101234
2017-10-15T03:50:47.938Z,101233
2017-10-15T03:51:47.958Z,101236
2017-10-15T03:52:48.037Z,101233
2017-10-15T03:53:48.063Z,101236
2017-10-15T03:54:48.130Z,101232
2017-10-15T03:55:48.215Z,101237
2017-10-15T03:56:48.246Z,101234
2017-10-15T03:57:48.344Z,101237
2017-10-15T03:58:48.314Z,101236
2017-10-15T03:59:48.459Z,101233
2017-10-15T04:00:48.398Z,101237
2017-10-15T04:01:48.496Z,101233
2017-10-15T04:02:48.517Z,101231
2017-10-15T04:03:48.465Z,101233
2017-10-15T04:04:48.607Z,101232
2017-10-15T04:05:48.599Z,101231
2017-10-15T04:06:48.601Z,101233
2017-10-15T04:07:48.677Z,101234
2017-10-15T04:08:48.719Z,101231
2017-10-15T04:09:48.786Z,101228
2017-10-15T04:10:48.805Z,101233
2017-10-15T04:11:48.888Z,101228
2017-10-15T04:12:48.851Z,101228
2017-10-15T04:13:48.938Z,101231
2017-10-15T04:14:49.009Z,101230
2017-10-15T04:15:49.137Z,101227
2017-10-15T04:16:49.202Z,101232
2017-10-15T04:17:49.248Z,101233
2017-10-15T04:18:49.274Z,101232
2017-10-15T04:19:49.346Z,101232
2017-10-15T04:20:49.397Z,101237
2017-10-15T04:21:49.437Z,101232
2017-10-15T04:22:49.474Z,101235
2017-10-15T04:23:49.422Z,101237
2017-10-15T04:24:49.575Z,101236
2017-10-15T04:25:49.636Z,101238
2017-10-15T04:26:49.733Z,101239
2017-10-15T04:27:49.794Z,101238
2017-10-15T04:28:49.795Z,101238
2017-10-15T04:29:49.861Z,101237
2017-10-15T04:30:49.836Z,101239
2017-10-15T04:31:49.936Z,101229
2017-10-15T04:32:49.957Z,101238
2017-10-15T04:33:50.112Z,101233
2017-10-15T04:34:50.079Z,101232
2017-10-15T04:35:50.186Z,101237
2017-10-15T04:36:50.265Z,101236
2017-10-15T04:37:50.235Z,101232
2017-10-15T04:38:50.254Z,101233
2017-10-15T04:39:50.419Z,101234
2017-10-15T04:40:50.473Z,101228
2017-10-15T04:41:50.409Z,101232
2017-10-15T04:42:50.565Z,101228
2017-10-15T04:43:50.655Z,101231
2017-10-15T04:44:50.646Z,101231
2017-10-15T04:45:50.689Z,101232
2017-10-15T04:46:50.774Z,101231
2017-10-15T04:47:50.834Z,101232
2017-10-15T04:48:50.924Z,101228
2017-10-15T04:49:50.960Z,101233
2017-10-15T04:50:51.017Z,101228
2017-10-15T04:51:51.017Z,101234
2017-10-15T04:52:51.143Z,101237
2017-10-15T04:53:51.189Z,101233
2017-10-15T04:54:51.213Z,101233
2017-10-15T04:55:51.189Z,101228
2017-10-15T04:56:51.205Z,101228
2017-10-15T04:57:51.290Z,101232
2017-10-15T04:58:51.451Z,101228
2017-10-15T04:59:51.380Z,101223
2017-10-15T05:00:51.442Z,101226
2017-10-15T05:01:51.578Z,101226
2017-10-15T05:02:51.594Z,101227
2017-10-15T05:03:51.702Z,101227
2017-10-15T05:04:51.846Z,101226
2017-10-15T05:05:51.866Z,101227
2017-10-15T05:06:51.876Z,101221
2017-10-15T05:07:51.946Z,101225
2017-10-15T05:08:51.997Z,101222
2017-10-15T05:09:52.052Z,101223
2017-10-15T05:10:52.092Z,101222
2017-10-15T05:11:52.153Z,101223
2017-10-15T05:12:52.151Z,101220
2017-10-15T05:13:52.183Z,101217
2017-10-15T05:14:52.313Z,101211
2017-10-15T05:15:52.251Z,101219
2017-10-15T05:16:52.286Z,101217
2017-10-15T05:17:52.426Z,101219
2017-10-15T05:18:52.445Z,101218
2017-10-15T05:19:52.459Z,101218
2017-10-15T05:20:52.603Z,101219
2017-10-15T05:21:52.568Z,101218
2017-10-15T05:22:52.634Z,101221
2017-10-15T05:23:52.588Z,101217
2017-10-15T05:24:52.732Z,101215
2017-10-15T05:25:52.774Z,101211
2017-10-15T05:26:52.934Z,101210
2017-10-15T05:27:52.920Z,101211
2017-10-15T05:28:52.856Z,101215
2017-10-15T05:29:52.988Z,101217
2017-10-15T05:30:53.091Z,101217
2017-10-15T05:31:53.086Z,101215
2017-10-15T05:32:53.083Z,101217
2017-10-15T05:33:53.160Z,101216
2017-10-15T05:34:53.182Z,101216
2017-10-15T05:35:53.233Z,101216
2017-10-15T05:36:53.323Z,101218
2017-10-15T05:37:53.290Z,101214
2017-10-15T05:38:53.335Z,101217
2017-10-15T05:39:53.360Z,101209
2017-10-15T05:40:53.356Z,101212
2017-10-15T05:41:53.462Z,101217
2017-10-15T05:42:53.551Z,101213
2017-10-15T05:43:53.654Z,101212
2017-10-15T05:44:53.650Z,101214
2017-10-15T05:45:53.672Z,101210
2017-10-15T05:46:53.620Z,101210
2017-10-15T05:47:53.788Z,101209
2017-10-15T05:48:53.854Z,101208
2017-10-15T05:49:53.901Z,101208
2017-10-15T05:50:53.961Z,101205
2017-10-15T05:51:53.997Z,101206
2017-10-15T05:52:53.995Z,101201
2017-10-15T05:53:54.156Z,101197
2017-10-15T05:54:54.106Z,101197
2017-10-15T05:55:54.182Z,101193
2017-10-15T05:56:54.314Z,101195
2017-10-15T05:57:54.345Z,101199
2017-10-15T05:58:54.330Z,101198
2017-10-15T05:59:54.409Z,101198
2017-10-15T06:00:54.438Z,101197
2017-10-15T06:01:54.394Z,101196
2017-10-15T06:02:54.398Z,101195
2017-10-15T06:03:54.574Z,101192
2017-10-15T06:04:54.495Z,101190
2017-10-15T06:05:54.588Z,101192
2017-10-15T06:06:54.684Z,101194
2017-10-15T06:07:54.740Z,101188
2017-10-15T06:08:54.813Z,101189
2017-10-15T06:09:54.801Z,101190
2017-10-15T06:10:54.860Z,101190
2017-10-15T06:11:54.952Z,101187
2017-10-15T06:12:54.972Z,101195
2017-10-15T06:13:54.999Z,101193
2017-10-15T06:14:55.061Z,101194
2017-10-15T06:15:55.093Z,101201
2017-10-15T06:16:55.188Z,101194
2017-10-15T06:17:55.141Z,101198
2017-10-15T06:18:55.167Z,101199
2017-10-15T06:19:55.258Z,101193
2017-10-15T06:20:55.413Z,101200
2017-10-15T06:21:55.460Z,101202
2017-10-15T06:22:55.447Z,101200
2017-10-15T06:23:55.516Z,101201
2017-10-15T06:24:55.559Z,101198
2017-10-15T06:25:55.674Z,101202
2017-10-15T06:26:55.698Z,101201
2017-10-15T06:27:55.736Z,101205
2017-10-15T06:28:55.809Z,101206
2017-10-15T06:29:55.840Z,101206
2017-10-15T06:30:55.928Z,101212
2017-10-15T06:31:56.073Z,101207
2017-10-15T06:32:56.046Z,101210
2017-10-15T06:33:56.158Z,101212
2017-10-15T06:34:56.155Z,101211
2017-10-15T06:35:56.174Z,101209
2017-10-15T06:36:56.248Z,101206
2017-10-15T06:37:56.392Z,101211
2017-10-15T06:38:56.368Z,101206
2017-10-15T06:39:56.402Z,101209
2017-10-15T06:40:56.499Z,101204
2017-10-15T06:41:56.521Z,101207
2017-10-15T06:42:56.591Z,101207
2017-10-15T06:43:56.627Z,101208
2017-10-15T06:44:56.665Z,101203
2017-10-15T06:45:56.757Z,101204
2017-10-15T06:46:56.751Z,101206
2017-10-15T06:47:56.802Z,101203
2017-10-15T06:48:56.901Z,101204
2017-10-15T06:49:56.981Z,101203
2017-10-15T06:50:57.013Z,101206
2017-10-15T06:51:57.053Z,101202
2017-10-15T06:52:57.090Z,101202
2017-10-15T06:53:57.126Z,101201
2017-10-15T06:54:57.251Z,101201
2017-10-15T06:55:57.280Z,101201
2017-10-15T06:56:57.239Z,101205
2017-10-15T06:57:57.311Z,101200
2017-10-15T06:58:57.293Z,101201
2017-10-15T06:59:57.309Z,101195
2017-10-15T07:00:57.441Z,101197
2017-10-15T07:01:57.516Z,101197
2017-10-15T07:02:57.583Z,101197
2017-10-15T07:03:57.563Z,101198
2017-10-15T07:04:57.622Z,101199
2017-10-15T07:05:57.698Z,101195
2017-10-15T07:06:57.849Z,101194
2017-10-15T07:07:57.882Z,101193
2017-10-15T07:08:58.025Z,101194
2017-10-15T07:09:57.989Z,101190
2017-10-15T07:10:58.106Z,101185
2017-10-15T07:11:58.110Z,101187
2017-10-15T07:12:58.155Z,101190
2017-10-15T07:13:58.223Z,101190
2017-10-15T07:14:58.190Z,101187
2017-10-15T07:15:58.306Z,101191
2017-10-15T07:16:58.348Z,101192
2017-10-15T07:17:58.319Z,101191
2017-10-15T07:18:58.371Z,101190
2017-10-15T07:19:58.511Z,101189
2017-10-15T07:20:58.494Z,101189
2017-10-15T07:21:58.570Z,101190
2017-10-15T07:22:58.650Z,101193
2017-10-15T07:23:58.671Z,101186
2017-10-15T07:24:58.655Z,101197
2017-10-15T07:25:58.776Z,101190
2017-10-15T07:26:58.856Z,101185
2017-10-15T07:27:58.865Z,101186
2017-10-15T07:28:58.930Z,101191
2017-10-15T07:29:58.882Z,101192
2017-10-15T07:30:58.890Z,101192
2017-10-15T07:31:58.963Z,101194
2017-10-15T07:32:59.049Z,101193
2017-10-15T07:33:59.138Z,101191
2017-10-15T07:34:59.105Z,101196
2017-10-15T07:35:59.175Z,101198
2017-10-15T07:36:59.220Z,101191
2017-10-15T07:37:59.234Z,101190
2017-10-15T07:38:59.309Z,101193
2017-10-15T07:39:59.329Z,101195
2017-10-15T07:40:59.295Z,101195
2017-10-15T07:41:59.397Z,101192
2017-10-15T07:42:59.493Z,101183
2017-10-15T07:43:59.694Z,101188
2017-10-15T07:44:59.695Z,101188
2017-10-15T07:45:59.830Z,101187
2017-10-15T07:46:59.851Z,101186
2017-10-15T07:47:59.954Z,101188
2017-10-15T07:48:59.914Z,101188
2017-10-15T07:49:59.906Z,101187
2017-10-15T07:51:00.067Z,101187
2017-10-15T07:52:00.056Z,101181
2017-10-15T07:53:00.103Z,101190
2017-10-15T07:54:00.218Z,101191
2017-10-15T07:55:00.248Z,101185
2017-10-15T07:56:00.349Z,101183
2017-10-15T07:57:00.305Z,101187
2017-10-15T07:58:00.456Z,101189
2017-10-15T07:59:00.403Z,101189
2017-10-15T08:00:00.498Z,101189
2017-10-15T08:01:00.601Z,101184
2017-10-15T08:02:00.635Z,101187
2017-10-15T08:03:00.658Z,101184
2017-10-15T08:04:00.756Z,101184
2017-10-15T08:05:00.795Z,101187
2017-10-15T08:06:00.932Z,101187
2017-10-15T08:07:00.933Z,101186
2017-10-15T08:08:00.886Z,101184
2017-10-15T08:09:00.969Z,101182
2017-10-15T08:10:00.992Z,101184
2017-10-15T08:11:00.987Z,101181
2017-10-15T08:12:01.140Z,101184
2017-10-15T08:13:01.219Z,101182
2017-10-15T08:14:01.256Z,101180
2017-10-15T08:15:01.416Z,101176
2017-10-15T08:16:01.399Z,101183
2017-10-15T08:17:01.509Z,101183
2017-10-15T08:18:01.446Z,101182
2017-10-15T08:19:01.513Z,101182
2017-10-15T08:20:01.557Z,101185
2017-10-15T08:21:01.614Z,101187
2017-10-15T08:22:01.768Z,101183
2017-10-15T08:23:01.729Z,101179
2017-10-15T08:24:01.727Z,101180
2017-10-15T08:25:01.811Z,101183
2017-10-15T08:26:01.892Z,101182
2017-10-15T08:27:01.987Z,101178
2017-10-15T08:28:02.077Z,101179
2017-10-15T08:29:02.089Z,101185
2017-10-15T08:30:02.033Z,101181
2017-10-15T08:31:02.058Z,101177
2017-10-15T08:32:02.177Z,101177
2017-10-15T08:33:02.201Z,101178
2017-10-15T08:34:02.214Z,101175
2017-10-15T08:35:02.308Z,101164
2017-10-15T08:36:02.292Z,101170
2017-10-15T08:37:02.455Z,101169
2017-10-15T08:38:02.538Z,101163
2017-10-15T08:39:02.629Z,101170
2017-10-15T08:40:02.701Z,101169
2017-10-15T08:41:02.737Z,101162
2017-10-15T08:42:02.752Z,101172
2017-10-15T08:43:02.869Z,101171
2017-10-15T08:44:02.885Z,101168
2017-10-15T08:45:02.996Z,101171
2017-10-15T08:46:02.969Z,101170
2017-10-15T08:47:03.071Z,101167
2017-10-15T08:48:03.132Z,101172
2017-10-15T08:49:03.153Z,101171
2017-10-15T08:50:03.218Z,101172
2017-10-15T08:51:03.377Z,101172
2017-10-15T08:52:03.382Z,101169
2017-10-15T08:53:03.446Z,101170
2017-10-15T08:54:03.529Z,101170
2017-10-15T08:55:03.589Z,101168
2017-10-15T08:56:03.680Z,101176
2017-10-15T08:57:03.782Z,101174
2017-10-15T08:58:03.844Z,101174
2017-10-15T08:59:03.905Z,101173
2017-10-15T09:00:03.897Z,101166
2017-10-15T09:01:03.911Z,101169
2017-10-15T09:02:03.988Z,101172
2017-10-15T09:03:04.072Z,101165
2017-10-15T09:04:04.208Z,101168
2017-10-15T09:05:04.221Z,101166
2017-10-15T09:06:04.244Z,101164
2017-10-15T09:07:04.264Z,101165
2017-10-15T09:08:04.371Z,101164
2017-10-15T09:09:04.395Z,101164
2017-10-15T09:10:04.416Z,101166
2017-10-15T09:11:04.463Z,101168
2017-10-15T09:12:04.467Z,101162
2017-10-15T09:13:04.501Z,101168
2017-10-15T09:14:04.614Z,101166
2017-10-15T09:15:04.638Z,101170
2017-10-15T09:16:04.655Z,101167
2017-10-15T09:17:04.752Z,101169
2017-10-15T09:18:04.861Z,101171
2017-10-15T09:19:04.865Z,101164
2017-10-15T09:20:04.885Z,101162
2017-10-15T09:21:04.935Z,101159
2017-10-15T09:22:05.090Z,101159
2017-10-15T09:23:05.106Z,101157
2017-10-15T09:24:05.209Z,101157
2017-10-15T09:25:05.171Z,101160
2017-10-15T09:26:05.278Z,101158
2017-10-15T09:27:05.315Z,101163
2017-10-15T09:28:05.289Z,101161
2017-10-15T09:29:05.341Z,101156
2017-10-15T09:30:05.417Z,101154
2017-10-15T09:31:05.454Z,101154
2017-10-15T09:32:05.575Z,101155
2017-10-15T09:33:05.563Z,101147
2017-10-15T09:34:05.524Z,101150
2017-10-15T09:35:05.634Z,101146
2017-10-15T09:36:05.696Z,101150
2017-10-15T09:37:05.730Z,101148
2017-10-15T09:38:05.754Z,101145
2017-10-15T09:39:05.818Z,101145
2017-10-15T09:40:05.889Z,101146
2017-10-15T09:41:05.947Z,101141
2017-10-15T09:42:06.096Z,101141
2017-10-15T09:43:06.187Z,101138
2017-10-15T09:44:06.176Z,101145
2017-10-15T09:45:06.223Z,101140
2017-10-15T09:46:06.333Z,101142
2017-10-15T09:47:06.441Z,101135
2017-10-15T09:48:06.494Z,101140
2017-10-15T09:49:06.561Z,101138
2017-10-15T09:50:06.545Z,101137
2017-10-15T09:51:06.647Z,101138
2017-10-15T09:52:06.654Z,101136
2017-10-15T09:53:06.690Z,101132
2017-10-15T09:54:06.764Z,101130
2017-10-15T09:55:06.754Z,101127
2017-10-15T09:56:06.909Z,101130
2017-10-15T09:57:06.993Z,101129
2017-10-15T09:58:06.973Z,101129
2017-10-15T09:59:07.104Z,101127
2017-10-15T10:00:07.097Z,101127
2017-10-15T10:01:07.528Z,101125
2017-10-15T10:02:07.285Z,101123
2017-10-15T10:03:07.306Z,101119
2017-10-15T10:04:07.272Z,101122
2017-10-15T10:05:07.385Z,101120
2017-10-15T10:06:07.453Z,101121
2017-10-15T10:07:07.783Z,101116
2017-10-15T10:08:07.473Z,101122
2017-10-15T10:09:07.565Z,101114
2017-10-15T10:10:07.578Z,101118
2017-10-15T10:11:07.673Z,101118
2017-10-15T10:12:07.664Z,101117
2017-10-15T10:13:08.027Z,101115
2017-10-15T10:14:07.853Z,101113
2017-10-15T10:15:07.951Z,101112
2017-10-15T10:16:07.903Z,101117
2017-10-15T10:17:08.015Z,101112
2017-10-15T10:21:57.722Z,101105
2017-10-15T10:22:57.518Z,101106
2017-10-15T10:23:57.523Z,101106
2017-10-15T10:24:57.612Z,101105
2017-10-15T10:25:57.707Z,101103
2017-10-15T10:26:57.645Z,101104
2017-10-15T10:27:58.015Z,101105
2017-10-15T10:28:57.822Z,101099
2017-10-15T10:29:57.985Z,101104
2017-10-15T10:30:58.063Z,101103
2017-10-15T10:31:58.076Z,101100
2017-10-15T10:32:58.019Z,101096
2017-10-15T10:33:58.424Z,101095
2017-10-15T10:34:58.286Z,101096
2017-10-15T10:35:58.250Z,101099
2017-10-15T10:36:58.227Z,101098
2017-10-15T10:37:58.319Z,101094
2017-10-15T10:38:58.427Z,101090
2017-10-15T10:39:58.742Z,101095
2017-10-15T10:40:58.515Z,101096
2017-10-15T10:41:58.574Z,101093
2017-10-15T10:42:58.564Z,101085
2017-10-15T10:43:58.628Z,101091
2017-10-15T10:44:58.781Z,101089
2017-10-15T10:45:59.066Z,101091
2017-10-15T10:46:58.921Z,101093
2017-10-15T10:47:58.924Z,101086
2017-10-15T10:48:58.934Z,101091
2017-10-15T10:49:59.023Z,101090
2017-10-15T10:50:58.978Z,101092
2017-10-15T10:51:59.248Z,101087
2017-10-15T10:52:59.150Z,101085
2017-10-15T10:53:59.175Z,101080
2017-10-15T10:54:59.216Z,101085
2017-10-15T10:55:59.183Z,101078
2017-10-15T10:56:59.216Z,101081
2017-10-15T10:57:59.619Z,101078
2017-10-15T10:58:59.385Z,101085
2017-10-15T10:59:59.387Z,101075
2017-10-15T11:00:59.401Z,101076
2017-10-15T11:01:59.478Z,101077
2017-10-15T11:02:59.473Z,101073
2017-10-15T11:03:59.755Z,101074
2017-10-15T11:04:59.554Z,101066
2017-10-15T11:05:59.648Z,101065
2017-10-15T11:06:59.689Z,101072
2017-10-15T11:07:59.712Z,101073
2017-10-15T11:08:59.718Z,101072
2017-10-15T11:09:59.929Z,101073
2017-10-15T11:10:59.732Z,101069
2017-10-15T11:11:59.872Z,101064
2017-10-15T11:12:59.884Z,101072
2017-10-15T11:14:00.032Z,101066
2017-10-15T11:15:00.133Z,101066
2017-10-15T11:16:00.473Z,101062
2017-10-15T11:17:00.131Z,101060
2017-10-15T11:18:00.221Z,101063
2017-10-15T11:19:00.299Z,101062
2017-10-15T11:20:00.316Z,101058
2017-10-15T11:21:00.425Z,101061
2017-10-15T11:22:00.791Z,101061
2017-10-15T11:23:00.602Z,101059
2017-10-15T11:24:00.549Z,101062
2017-10-15T11:25:00.681Z,101061
2017-10-15T11:26:00.764Z,101055
2017-10-15T11:27:00.791Z,101058
2017-10-15T11:28:01.030Z,101057
2017-10-15T11:29:00.878Z,101059
2017-10-15T11:30:01.005Z,101051
2017-10-15T11:31:01.002Z,101055
2017-10-15T11:32:01.043Z,101055
2017-10-15T11:33:01.195Z,101053
2017-10-15T11:34:01.427Z,101048
2017-10-15T11:35:01.272Z,101047
2017-10-15T11:36:01.412Z,101046
2017-10-15T11:37:01.485Z,101045
2017-10-15T11:38:01.508Z,101046
2017-10-15T11:39:01.564Z,101043
2017-10-15T11:40:01.842Z,101042
2017-10-15T11:41:01.665Z,101042
2017-10-15T11:42:01.700Z,101041
2017-10-15T11:43:01.668Z,101032
2017-10-15T11:44:01.705Z,101037
2017-10-15T11:45:01.743Z,101037
2017-10-15T11:46:02.105Z,101035
2017-10-15T11:47:01.815Z,101033
2017-10-15T11:48:01.962Z,101041
2017-10-15T11:49:01.988Z,101035
2017-10-15T11:50:01.940Z,101032
2017-10-15T11:51:02.031Z,101032
2017-10-15T11:52:02.235Z,101031
2017-10-15T11:53:02.005Z,101032
2017-10-15T11:54:02.137Z,101031
2017-10-15T11:55:02.122Z,101031
2017-10-15T11:56:02.240Z,101027
2017-10-15T11:57:02.249Z,101027
2017-10-15T11:58:02.656Z,101025
2017-10-15T11:59:02.415Z,101023
2017-10-15T12:00:02.506Z,101021
2017-10-15T12:01:02.523Z,101019
2017-10-15T12:02:02.587Z,101016
2017-10-15T12:03:02.654Z,101021
2017-10-15T12:04:03.050Z,101018
2017-10-15T12:05:02.807Z,101014
2017-10-15T12:06:02.841Z,101016
2017-10-15T12:07:02.904Z,101010
2017-10-15T12:08:02.916Z,101013
2017-10-15T12:09:02.949Z,101016
2017-10-15T12:10:03.208Z,101006
2017-10-15T12:12:03.285Z,101009
2017-10-15T12:13:03.420Z,101011
2017-10-15T12:14:03.485Z,101010
2017-10-15T12:15:03.432Z,101008
2017-10-15T12:16:03.739Z,101005
2017-10-15T12:17:03.532Z,101001
2017-10-15T12:18:03.592Z,101005
2017-10-15T12:19:03.593Z,101003
2017-10-15T12:20:03.653Z,101000
2017-10-15T12:21:03.656Z,100998
2017-10-15T12:22:03.972Z,101001
2017-10-15T12:23:03.827Z,101001
2017-10-15T12:24:03.813Z,100999
2017-10-15T12:25:03.891Z,101001
2017-10-15T12:26:03.950Z,101000
2017-10-15T12:27:04.006Z,100996
2017-10-15T12:28:04.305Z,100998
2017-10-15T12:29:04.082Z,100999
2017-10-15T12:30:04.240Z,100996
2017-10-15T12:31:04.260Z,100991
2017-10-15T12:32:04.369Z,100992
2017-10-15T12:33:04.290Z,100994
2017-10-15T12:34:04.729Z,100989